Auburn Lake Trails, California
Current Conditions -  °F | °C
As of 7:15 AM on Thursday 23 Oct 2014 (Local Time) from KAUN Reporting Station
Clear Clear  
Wind Chill: 15°   Ceiling: Unl
Heat Index: 15°   Visibility: 10mi
Dew Point:   Wind: 8mph
Humidity: 55%   Direction: 100°E
Pressure: 30.05"   Gusts: NA
Location:  38.8932°N, 120.985°W
Report Text: KAUN 231415Z AUTO 10007KT 10SM CLR 15/06 A3005 RMK AO1
Loading
Personal Weather Stations






























Interactive Weather Map
Tropical Storm Tracking
New forecast layout! Learn more

10-Day Weather Forecast

Advertisements
Track Severe Weather on mobile